sensor_id;sensor_type;location;lat;lon;timestamp;pressure;altitude;pressure_sealevel;temperature;humidity
41264;BME280;26998;48.714;9.414;2023-02-19T00:00:11;100033.59;;;9.60;100.00
41264;BME280;26998;48.714;9.414;2023-02-19T00:02:38;100039.06;;;9.58;100.00
41264;BME280;26998;48.714;9.414;2023-02-19T00:05:05;100053.25;;;9.59;100.00
41264;BME280;26998;48.714;9.414;2023-02-19T00:07:32;100054.25;;;9.58;100.00
41264;BME280;26998;48.714;9.414;2023-02-19T00:09:58;100055.91;;;9.59;100.00
41264;BME280;26998;48.714;9.414;2023-02-19T00:12:25;100053.56;;;9.56;100.00
41264;BME280;26998;48.714;9.414;2023-02-19T00:14:51;100076.75;;;9.55;100.00
41264;BME280;26998;48.714;9.414;2023-02-19T00:17:17;100076.75;;;9.55;100.00
41264;BME280;26998;48.714;9.414;2023-02-19T00:19:44;100077.78;;;9.54;100.00
41264;BME280;26998;48.714;9.414;2023-02-19T00:22:10;100076.25;;;9.52;100.00
41264;BME280;26998;48.714;9.414;2023-02-19T00:24:37;100083.56;;;9.49;100.00
41264;BME280;26998;48.714;9.414;2023-02-19T00:27:04;100092.41;;;9.50;100.00
41264;BME280;26998;48.714;9.414;2023-02-19T00:29:30;100080.06;;;9.49;100.00
41264;BME280;26998;48.714;9.414;2023-02-19T00:31:57;100081.91;;;9.48;100.00
41264;BME280;26998;48.714;9.414;2023-02-19T00:34:24;100075.75;;;9.48;100.00
41264;BME280;26998;48.714;9.414;2023-02-19T00:36:50;100085.25;;;9.51;100.00
41264;BME280;26998;48.714;9.414;2023-02-19T00:39:16;100078.22;;;9.49;100.00
41264;BME280;26998;48.714;9.414;2023-02-19T00:41:43;100072.06;;;9.49;100.00
41264;BME280;26998;48.714;9.414;2023-02-19T00:44:11;100074.75;;;9.49;100.00
41264;BME280;26998;48.714;9.414;2023-02-19T00:46:40;100065.72;;;9.50;100.00
41264;BME280;26998;48.714;9.414;2023-02-19T00:49:09;100069.41;;;9.49;100.00
41264;BME280;26998;48.714;9.414;2023-02-19T00:51:38;100071.06;;;9.50;100.00
41264;BME280;26998;48.714;9.414;2023-02-19T00:54:05;100070.09;;;9.51;100.00
41264;BME280;26998;48.714;9.414;2023-02-19T00:56:32;100075.41;;;9.51;100.00
41264;BME280;26998;48.714;9.414;2023-02-19T00:58:59;100073.72;;;9.50;100.00
41264;BME280;26998;48.714;9.414;2023-02-19T01:01:25;100056.06;;;9.49;100.00
41264;BME280;26998;48.714;9.414;2023-02-19T01:03:53;100051.72;;;9.48;100.00
41264;BME280;26998;48.714;9.414;2023-02-19T01:06:20;100050.91;;;9.47;100.00
41264;BME280;26998;48.714;9.414;2023-02-19T01:08:47;100049.72;;;9.50;100.00
41264;BME280;26998;48.714;9.414;2023-02-19T01:11:14;100040.22;;;9.47;100.00
41264;BME280;26998;48.714;9.414;2023-02-19T01:13:42;100032.38;;;9.46;100.00
41264;BME280;26998;48.714;9.414;2023-02-19T01:18:39;100031.38;;;9.47;100.00
41264;BME280;26998;48.714;9.414;2023-02-19T01:21:08;100026.88;;;9.47;100.00
41264;BME280;26998;48.714;9.414;2023-02-19T01:23:35;100012.53;;;9.48;100.00
41264;BME280;26998;48.714;9.414;2023-02-19T01:26:04;99982.84;;;9.52;100.00
41264;BME280;26998;48.714;9.414;2023-02-19T01:28:30;99962.31;;;9.52;100.00
41264;BME280;26998;48.714;9.414;2023-02-19T01:31:05;99931.00;;;9.54;100.00
41264;BME280;26998;48.714;9.414;2023-02-19T01:33:33;99904.47;;;9.61;100.00
41264;BME280;26998;48.714;9.414;2023-02-19T01:36:03;99878.59;;;9.61;100.00
41264;BME280;26998;48.714;9.414;2023-02-19T01:38:30;99873.25;;;9.61;100.00
41264;BME280;26998;48.714;9.414;2023-02-19T01:40:59;99813.53;;;9.70;100.00
41264;BME280;26998;48.714;9.414;2023-02-19T01:43:26;99780.00;;;9.76;100.00
41264;BME280;26998;48.714;9.414;2023-02-19T01:45:53;99742.78;;;9.83;100.00
41264;BME280;26998;48.714;9.414;2023-02-19T01:48:24;99701.72;;;9.84;100.00
41264;BME280;26998;48.714;9.414;2023-02-19T01:50:57;99680.84;;;9.87;100.00
41264;BME280;26998;48.714;9.414;2023-02-19T01:53:27;99668.34;;;9.88;100.00
41264;BME280;26998;48.714;9.414;2023-02-19T01:55:57;99641.78;;;9.94;100.00
41264;BME280;26998;48.714;9.414;2023-02-19T01:58:27;99626.38;;;9.97;100.00
41264;BME280;26998;48.714;9.414;2023-02-19T02:00:56;99614.03;;;10.04;100.00
41264;BME280;26998;48.714;9.414;2023-02-19T02:03:23;99606.00;;;10.04;100.00
41264;BME280;26998;48.714;9.414;2023-02-19T02:06:14;99609.66;;;10.03;100.00
41264;BME280;26998;48.714;9.414;2023-02-19T02:08:42;99608.19;;;10.00;100.00
41264;BME280;26998;48.714;9.414;2023-02-19T02:11:09;99607.84;;;10.03;100.00
41264;BME280;26998;48.714;9.414;2023-02-19T02:13:37;99607.84;;;10.03;100.00
41264;BME280;26998;48.714;9.414;2023-02-19T02:16:21;99612.84;;;10.06;100.00
41264;BME280;26998;48.714;9.414;2023-02-19T02:21:52;99608.84;;;10.02;100.00
41264;BME280;26998;48.714;9.414;2023-02-19T02:33:05;99619.88;;;9.99;100.00
41264;BME280;26998;48.714;9.414;2023-02-19T02:35:44;99618.53;;;10.03;100.00
41264;BME280;26998;48.714;9.414;2023-02-19T02:38:14;99616.84;;;10.02;100.00
41264;BME280;26998;48.714;9.414;2023-02-19T02:40:43;99628.06;;;9.98;100.00
41264;BME280;26998;48.714;9.414;2023-02-19T02:43:11;99661.63;;;9.92;100.00
41264;BME280;26998;48.714;9.414;2023-02-19T02:45:38;99684.16;;;9.89;100.00
41264;BME280;26998;48.714;9.414;2023-02-19T02:48:21;99702.53;;;9.84;100.00
41264;BME280;26998;48.714;9.414;2023-02-19T02:53:44;99734.44;;;9.78;100.00
41264;BME280;26998;48.714;9.414;2023-02-19T02:56:13;99750.97;;;9.73;100.00
41264;BME280;26998;48.714;9.414;2023-02-19T02:58:42;99753.81;;;9.71;100.00
41264;BME280;26998;48.714;9.414;2023-02-19T03:01:14;99770.81;;;9.70;100.00
41264;BME280;26998;48.714;9.414;2023-02-19T03:03:45;99760.16;;;9.70;100.00
41264;BME280;26998;48.714;9.414;2023-02-19T03:06:16;99751.13;;;9.71;100.00
41264;BME280;26998;48.714;9.414;2023-02-19T03:08:53;99734.97;;;9.73;100.00
41264;BME280;26998;48.714;9.414;2023-02-19T03:11:22;99724.94;;;9.75;100.00
41264;BME280;26998;48.714;9.414;2023-02-19T03:13:56;99714.09;;;9.77;100.00
41264;BME280;26998;48.714;9.414;2023-02-19T03:16:32;99700.06;;;9.83;100.00
41264;BME280;26998;48.714;9.414;2023-02-19T03:19:00;99691.22;;;9.82;100.00
41264;BME280;26998;48.714;9.414;2023-02-19T03:21:28;99684.22;;;9.81;100.00
41264;BME280;26998;48.714;9.414;2023-02-19T03:23:56;99687.06;;;9.80;100.00
41264;BME280;26998;48.714;9.414;2023-02-19T03:26:24;99691.72;;;9.78;100.00
41264;BME280;26998;48.714;9.414;2023-02-19T03:28:52;99696.22;;;9.77;100.00
41264;BME280;26998;48.714;9.414;2023-02-19T03:31:21;99700.25;;;9.73;100.00
41264;BME280;26998;48.714;9.414;2023-02-19T03:33:53;99725.63;;;9.69;100.00
41264;BME280;26998;48.714;9.414;2023-02-19T03:36:22;99752.34;;;9.61;100.00
41264;BME280;26998;48.714;9.414;2023-02-19T03:39:01;99802.88;;;9.54;100.00
41264;BME280;26998;48.714;9.414;2023-02-19T03:41:37;99811.22;;;9.51;100.00
41264;BME280;26998;48.714;9.414;2023-02-19T03:47:01;99874.75;;;9.39;100.00
41264;BME280;26998;48.714;9.414;2023-02-19T03:49:41;99888.28;;;9.38;100.00
41264;BME280;26998;48.714;9.414;2023-02-19T03:55:17;99926.75;;;9.27;100.00
41264;BME280;26998;48.714;9.414;2023-02-19T03:57:54;99937.59;;;9.25;100.00
41264;BME280;26998;48.714;9.414;2023-02-19T04:00:26;99947.59;;;9.23;100.00
41264;BME280;26998;48.714;9.414;2023-02-19T04:05:36;100036.06;;;9.11;100.00
41264;BME280;26998;48.714;9.414;2023-02-19T04:08:11;100057.88;;;9.06;100.00
41264;BME280;26998;48.714;9.414;2023-02-19T04:10:39;100061.53;;;9.05;100.00
41264;BME280;26998;48.714;9.414;2023-02-19T04:13:14;100051.56;;;9.07;100.00
41264;BME280;26998;48.714;9.414;2023-02-19T04:15:43;100073.22;;;9.04;100.00
41264;BME280;26998;48.714;9.414;2023-02-19T04:18:25;100076.84;;;9.03;100.00
41264;BME280;26998;48.714;9.414;2023-02-19T04:20:54;100080.53;;;9.02;100.00
41264;BME280;26998;48.714;9.414;2023-02-19T04:23:23;100080.53;;;9.02;100.00
41264;BME280;26998;48.714;9.414;2023-02-19T04:25:55;100056.38;;;9.04;100.00
41264;BME280;26998;48.714;9.414;2023-02-19T04:28:24;100037.84;;;9.02;100.00
41264;BME280;26998;48.714;9.414;2023-02-19T04:30:51;100036.03;;;9.02;100.00
41264;BME280;26998;48.714;9.414;2023-02-19T04:33:17;100021.84;;;9.02;100.00
41264;BME280;26998;48.714;9.414;2023-02-19T04:35:44;100019.19;;;9.02;100.00
41264;BME280;26998;48.714;9.414;2023-02-19T04:38:10;100026.34;;;9.01;100.00
41264;BME280;26998;48.714;9.414;2023-02-19T04:40:37;100012.19;;;9.01;100.00
41264;BME280;26998;48.714;9.414;2023-02-19T04:43:04;100003.88;;;9.04;100.00
41264;BME280;26998;48.714;9.414;2023-02-19T04:45:30;100011.50;;;8.99;100.00
41264;BME280;26998;48.714;9.414;2023-02-19T04:47:57;100001.03;;;9.06;100.00
41264;BME280;26998;48.714;9.414;2023-02-19T04:50:24;99993.34;;;9.02;100.00
41264;BME280;26998;48.714;9.414;2023-02-19T04:52:51;99979.69;;;9.06;100.00
41264;BME280;26998;48.714;9.414;2023-02-19T04:55:17;99972.84;;;9.03;100.00
41264;BME280;26998;48.714;9.414;2023-02-19T04:57:44;99957.84;;;9.02;100.00
41264;BME280;26998;48.714;9.414;2023-02-19T05:00:10;99956.84;;;9.03;100.00
41264;BME280;26998;48.714;9.414;2023-02-19T05:02:37;99950.03;;;9.00;100.00
41264;BME280;26998;48.714;9.414;2023-02-19T05:05:04;99938.19;;;9.03;100.00
41264;BME280;26998;48.714;9.414;2023-02-19T05:07:30;99927.69;;;9.01;100.00
41264;BME280;26998;48.714;9.414;2023-02-19T05:09:57;99909.34;;;8.98;100.00
41264;BME280;26998;48.714;9.414;2023-02-19T05:12:23;99897.84;;;8.98;100.00
41264;BME280;26998;48.714;9.414;2023-02-19T05:14:50;99875.38;;;9.00;100.00
41264;BME280;26998;48.714;9.414;2023-02-19T05:17:17;99856.03;;;8.98;100.00
41264;BME280;26998;48.714;9.414;2023-02-19T05:19:43;99851.03;;;8.95;100.00
41264;BME280;26998;48.714;9.414;2023-02-19T05:22:10;99859.84;;;8.96;100.00
41264;BME280;26998;48.714;9.414;2023-02-19T05:24:37;99862.50;;;8.96;100.00
41264;BME280;26998;48.714;9.414;2023-02-19T05:27:03;99861.84;;;8.94;100.00
41264;BME280;26998;48.714;9.414;2023-02-19T05:29:30;99853.84;;;8.94;100.00
41264;BME280;26998;48.714;9.414;2023-02-19T05:31:57;99861.00;;;8.93;100.00
41264;BME280;26998;48.714;9.414;2023-02-19T05:34:24;99864.81;;;8.91;100.00
41264;BME280;26998;48.714;9.414;2023-02-19T05:36:50;99879.16;;;8.90;100.00
41264;BME280;26998;48.714;9.414;2023-02-19T05:39:17;99879.16;;;8.90;100.00
41264;BME280;26998;48.714;9.414;2023-02-19T05:41:43;99874.84;;;8.89;100.00
41264;BME280;26998;48.714;9.414;2023-02-19T05:44:10;99875.50;;;8.91;100.00
41264;BME280;26998;48.714;9.414;2023-02-19T05:46:36;99877.50;;;8.89;100.00
41264;BME280;26998;48.714;9.414;2023-02-19T05:49:03;99888.31;;;8.87;100.00
41264;BME280;26998;48.714;9.414;2023-02-19T05:51:30;99896.47;;;8.86;100.00
41264;BME280;26998;48.714;9.414;2023-02-19T05:53:57;99893.81;;;8.86;100.00
41264;BME280;26998;48.714;9.414;2023-02-19T05:56:39;99914.47;;;8.84;100.00
41264;BME280;26998;48.714;9.414;2023-02-19T05:59:14;99931.97;;;8.86;100.00
41264;BME280;26998;48.714;9.414;2023-02-19T06:01:41;99934.97;;;8.83;100.00
41264;BME280;26998;48.714;9.414;2023-02-19T06:04:09;99927.66;;;8.85;100.00
41264;BME280;26998;48.714;9.414;2023-02-19T06:06:36;99934.13;;;8.83;100.00
41264;BME280;26998;48.714;9.414;2023-02-19T06:09:04;99948.47;;;8.82;100.00
41264;BME280;26998;48.714;9.414;2023-02-19T06:11:32;99953.25;;;8.78;100.00
41264;BME280;26998;48.714;9.414;2023-02-19T06:13:58;99967.44;;;8.78;100.00
41264;BME280;26998;48.714;9.414;2023-02-19T06:16:25;99965.75;;;8.77;100.00
41264;BME280;26998;48.714;9.414;2023-02-19T06:18:52;99962.94;;;8.79;100.00
41264;BME280;26998;48.714;9.414;2023-02-19T06:21:19;99973.09;;;8.75;100.00
41264;BME280;26998;48.714;9.414;2023-02-19T06:23:46;99963.09;;;8.77;100.00
41264;BME280;26998;48.714;9.414;2023-02-19T06:26:22;100002.53;;;8.74;100.00
41264;BME280;26998;48.714;9.414;2023-02-19T06:28:50;100040.81;;;8.65;100.00
41264;BME280;26998;48.714;9.414;2023-02-19T06:31:17;100060.78;;;8.61;100.00
41264;BME280;26998;48.714;9.414;2023-02-19T06:33:45;100079.03;;;8.55;100.00
41264;BME280;26998;48.714;9.414;2023-02-19T06:36:15;100139.47;;;8.37;100.00
41264;BME280;26998;48.714;9.414;2023-02-19T06:38:42;100204.91;;;8.22;100.00
41264;BME280;26998;48.714;9.414;2023-02-19T06:41:10;100265.91;;;8.15;100.00
41264;BME280;26998;48.714;9.414;2023-02-19T06:43:37;100320.47;;;8.11;100.00
41264;BME280;26998;48.714;9.414;2023-02-19T06:46:07;100330.28;;;8.10;100.00
41264;BME280;26998;48.714;9.414;2023-02-19T06:48:34;100332.09;;;8.10;100.00
41264;BME280;26998;48.714;9.414;2023-02-19T06:51:01;100339.94;;;8.12;100.00
41264;BME280;26998;48.714;9.414;2023-02-19T06:53:28;100354.25;;;8.10;100.00
41264;BME280;26998;48.714;9.414;2023-02-19T06:56:02;100376.50;;;8.09;100.00
41264;BME280;26998;48.714;9.414;2023-02-19T06:58:29;100358.88;;;8.08;100.00
41264;BME280;26998;48.714;9.414;2023-02-19T07:00:56;100236.19;;;8.20;100.00
41264;BME280;26998;48.714;9.414;2023-02-19T07:03:23;100130.03;;;8.25;100.00
41264;BME280;26998;48.714;9.414;2023-02-19T07:05:50;100032.38;;;8.33;100.00
41264;BME280;26998;48.714;9.414;2023-02-19T07:08:16;99971.38;;;8.40;100.00
41264;BME280;26998;48.714;9.414;2023-02-19T07:10:44;99942.34;;;8.37;100.00
41264;BME280;26998;48.714;9.414;2023-02-19T07:13:12;99897.47;;;8.42;100.00
41264;BME280;26998;48.714;9.414;2023-02-19T07:15:39;99851.03;;;8.53;100.00
41264;BME280;26998;48.714;9.414;2023-02-19T07:18:05;99814.25;;;8.56;100.00
41264;BME280;26998;48.714;9.414;2023-02-19T07:20:31;99815.63;;;8.61;100.00
41264;BME280;26998;48.714;9.414;2023-02-19T07:22:58;99792.28;;;8.63;100.00
41264;BME280;26998;48.714;9.414;2023-02-19T07:25:26;99769.81;;;8.65;100.00
41264;BME280;26998;48.714;9.414;2023-02-19T07:27:52;99791.97;;;8.66;100.00
41264;BME280;26998;48.714;9.414;2023-02-19T07:30:20;99784.50;;;8.69;100.00
41264;BME280;26998;48.714;9.414;2023-02-19T07:32:46;99805.13;;;8.67;100.00
41264;BME280;26998;48.714;9.414;2023-02-19T07:35:13;99776.66;;;8.68;100.00
41264;BME280;26998;48.714;9.414;2023-02-19T07:37:40;99778.81;;;8.64;100.00
41264;BME280;26998;48.714;9.414;2023-02-19T07:40:09;99771.81;;;8.63;100.00
41264;BME280;26998;48.714;9.414;2023-02-19T07:42:36;99781.63;;;8.63;100.00
41264;BME280;26998;48.714;9.414;2023-02-19T07:45:02;99792.47;;;8.61;100.00
41264;BME280;26998;48.714;9.414;2023-02-19T07:47:29;99758.31;;;8.65;100.00
41264;BME280;26998;48.714;9.414;2023-02-19T07:49:57;99765.31;;;8.66;100.00
41264;BME280;26998;48.714;9.414;2023-02-19T07:52:24;99769.47;;;8.68;100.00
41264;BME280;26998;48.714;9.414;2023-02-19T07:54:50;99770.84;;;8.72;100.00
41264;BME280;26998;48.714;9.414;2023-02-19T07:57:17;99725.22;;;8.75;100.00
41264;BME280;26998;48.714;9.414;2023-02-19T07:59:43;99721.22;;;8.79;100.00
41264;BME280;26998;48.714;9.414;2023-02-19T08:02:17;99700.56;;;8.82;100.00
41264;BME280;26998;48.714;9.414;2023-02-19T08:04:48;99686.88;;;8.85;100.00
41264;BME280;26998;48.714;9.414;2023-02-19T08:07:14;99670.06;;;8.92;100.00
41264;BME280;26998;48.714;9.414;2023-02-19T08:09:41;99655.38;;;8.96;100.00
41264;BME280;26998;48.714;9.414;2023-02-19T08:12:10;99638.22;;;8.99;100.00
41264;BME280;26998;48.714;9.414;2023-02-19T08:14:36;99635.22;;;9.02;100.00
41264;BME280;26998;48.714;9.414;2023-02-19T08:17:03;99633.72;;;9.08;100.00
41264;BME280;26998;48.714;9.414;2023-02-19T08:19:30;99617.53;;;9.09;100.00
41264;BME280;26998;48.714;9.414;2023-02-19T08:21:56;99616.56;;;9.10;100.00
41264;BME280;26998;48.714;9.414;2023-02-19T08:24:23;99610.22;;;9.11;100.00
41264;BME280;26998;48.714;9.414;2023-02-19T08:26:49;99613.53;;;9.13;100.00
41264;BME280;26998;48.714;9.414;2023-02-19T08:29:16;99620.53;;;9.22;100.00
41264;BME280;26998;48.714;9.414;2023-02-19T08:31:43;99640.31;;;9.28;100.00
41264;BME280;26998;48.714;9.414;2023-02-19T08:34:09;99631.00;;;9.32;100.00
41264;BME280;26998;48.714;9.414;2023-02-19T08:36:36;99627.81;;;9.37;100.00
41264;BME280;26998;48.714;9.414;2023-02-19T08:39:03;99625.66;;;9.32;100.00
41264;BME280;26998;48.714;9.414;2023-02-19T08:41:29;99649.13;;;9.45;100.00
41264;BME280;26998;48.714;9.414;2023-02-19T08:43:56;99644.31;;;9.40;100.00
41264;BME280;26998;48.714;9.414;2023-02-19T08:46:22;99631.31;;;9.37;100.00
41264;BME280;26998;48.714;9.414;2023-02-19T08:48:49;99644.97;;;9.42;100.00
41264;BME280;26998;48.714;9.414;2023-02-19T08:51:15;99679.84;;;9.41;100.00
41264;BME280;26998;48.714;9.414;2023-02-19T08:53:42;99674.19;;;9.28;100.00
41264;BME280;26998;48.714;9.414;2023-02-19T08:56:11;99686.53;;;9.29;100.00
41264;BME280;26998;48.714;9.414;2023-02-19T08:58:40;99696.53;;;9.35;100.00
41264;BME280;26998;48.714;9.414;2023-02-19T09:01:12;99693.19;;;9.33;100.00
41264;BME280;26998;48.714;9.414;2023-02-19T09:03:40;99693.19;;;9.41;100.00
41264;BME280;26998;48.714;9.414;2023-02-19T09:06:08;99696.00;;;9.39;100.00
41264;BME280;26998;48.714;9.414;2023-02-19T09:08:37;99693.00;;;9.51;100.00
41264;BME280;26998;48.714;9.414;2023-02-19T09:11:04;99700.81;;;9.60;100.00
41264;BME280;26998;48.714;9.414;2023-02-19T09:13:31;99710.47;;;9.53;100.00
41264;BME280;26998;48.714;9.414;2023-02-19T09:15:57;99700.31;;;9.48;100.00
41264;BME280;26998;48.714;9.414;2023-02-19T09:18:24;99742.84;;;9.34;100.00
41264;BME280;26998;48.714;9.414;2023-02-19T09:20:51;99735.19;;;9.39;100.00
41264;BME280;26998;48.714;9.414;2023-02-19T09:23:17;99734.03;;;9.33;100.00
41264;BME280;26998;48.714;9.414;2023-02-19T09:25:44;99734.50;;;9.37;100.00
41264;BME280;26998;48.714;9.414;2023-02-19T09:28:10;99760.56;;;9.35;100.00
41264;BME280;26998;48.714;9.414;2023-02-19T09:30:37;99744.22;;;9.30;100.00
41264;BME280;26998;48.714;9.414;2023-02-19T09:33:04;99755.88;;;9.29;100.00
41264;BME280;26998;48.714;9.414;2023-02-19T09:35:31;99738.34;;;9.34;100.00
41264;BME280;26998;48.714;9.414;2023-02-19T09:37:59;99741.53;;;9.38;100.00
41264;BME280;26998;48.714;9.414;2023-02-19T09:40:25;99738.69;;;9.47;100.00
41264;BME280;26998;48.714;9.414;2023-02-19T09:42:52;99732.53;;;9.47;100.00
41264;BME280;26998;48.714;9.414;2023-02-19T09:45:22;99724.84;;;9.44;100.00
41264;BME280;26998;48.714;9.414;2023-02-19T09:47:54;99644.97;;;9.42;100.00
41264;BME280;26998;48.714;9.414;2023-02-19T09:50:42;99661.13;;;9.49;100.00
41264;BME280;26998;48.714;9.414;2023-02-19T09:53:23;99608.91;;;9.55;100.00
41264;BME280;26998;48.714;9.414;2023-02-19T09:55:51;99620.38;;;9.63;100.00
41264;BME280;26998;48.714;9.414;2023-02-19T09:58:23;99636.34;;;9.71;100.00
41264;BME280;26998;48.714;9.414;2023-02-19T10:00:52;99615.00;;;9.71;100.00
41264;BME280;26998;48.714;9.414;2023-02-19T10:03:42;99622.25;;;9.94;100.00
41264;BME280;26998;48.714;9.414;2023-02-19T10:06:17;99607.28;;;9.85;100.00
41264;BME280;26998;48.714;9.414;2023-02-19T10:08:46;99591.97;;;10.02;100.00
41264;BME280;26998;48.714;9.414;2023-02-19T10:11:14;99592.47;;;10.05;100.00
41264;BME280;26998;48.714;9.414;2023-02-19T10:14:04;99581.31;;;10.02;100.00
41264;BME280;26998;48.714;9.414;2023-02-19T10:16:32;99575.44;;;10.06;100.00
41264;BME280;26998;48.714;9.414;2023-02-19T10:18:59;99565.47;;;10.00;100.00
41264;BME280;26998;48.714;9.414;2023-02-19T10:21:26;99569.75;;;10.09;100.00
41264;BME280;26998;48.714;9.414;2023-02-19T10:23:56;99570.97;;;10.22;100.00
41264;BME280;26998;48.714;9.414;2023-02-19T10:26:25;99578.63;;;10.25;100.00
41264;BME280;26998;48.714;9.414;2023-02-19T10:28:52;99570.91;;;10.38;100.00
41264;BME280;26998;48.714;9.414;2023-02-19T10:31:22;99561.50;;;10.42;100.00
41264;BME280;26998;48.714;9.414;2023-02-19T10:33:55;99565.34;;;10.77;100.00
41264;BME280;26998;48.714;9.414;2023-02-19T10:38:58;99581.50;;;10.69;100.00
41264;BME280;26998;48.714;9.414;2023-02-19T10:41:26;99571.84;;;10.45;100.00
41264;BME280;26998;48.714;9.414;2023-02-19T10:44:15;99588.91;;;10.59;100.00
41264;BME280;26998;48.714;9.414;2023-02-19T10:46:44;99580.63;;;10.54;100.00
41264;BME280;26998;48.714;9.414;2023-02-19T10:49:32;99581.31;;;10.71;100.00
41264;BME280;26998;48.714;9.414;2023-02-19T10:52:28;99589.53;;;10.46;100.00
41264;BME280;26998;48.714;9.414;2023-02-19T10:55:12;99571.28;;;10.50;100.00
41264;BME280;26998;48.714;9.414;2023-02-19T10:57:39;99577.06;;;10.38;100.00
41264;BME280;26998;48.714;9.414;2023-02-19T11:00:27;99570.75;;;10.54;100.00
41264;BME280;26998;48.714;9.414;2023-02-19T11:03:18;99569.25;;;10.75;100.00
41264;BME280;26998;48.714;9.414;2023-02-19T11:06:01;99563.91;;;10.75;100.00
41264;BME280;26998;48.714;9.414;2023-02-19T11:08:29;99567.41;;;10.75;100.00
41264;BME280;26998;48.714;9.414;2023-02-19T11:10:56;99559.03;;;10.93;100.00
41264;BME280;26998;48.714;9.414;2023-02-19T11:13:27;99552.47;;;10.96;100.00
41264;BME280;26998;48.714;9.414;2023-02-19T11:15:56;99553.50;;;11.09;100.00
41264;BME280;26998;48.714;9.414;2023-02-19T11:18:30;99547.81;;;11.13;100.00
41264;BME280;26998;48.714;9.414;2023-02-19T11:21:03;99545.66;;;10.93;100.00
41264;BME280;26998;48.714;9.414;2023-02-19T11:23:33;99554.53;;;10.94;100.00
41264;BME280;26998;48.714;9.414;2023-02-19T11:26:04;99543.72;;;11.02;100.00
41264;BME280;26998;48.714;9.414;2023-02-19T11:28:43;99542.00;;;11.09;100.00
41264;BME280;26998;48.714;9.414;2023-02-19T11:31:30;99556.63;;;10.98;100.00
41264;BME280;26998;48.714;9.414;2023-02-19T11:36:30;99550.75;;;11.03;100.00
41264;BME280;26998;48.714;9.414;2023-02-19T11:39:02;99542.06;;;10.86;100.00
41264;BME280;26998;48.714;9.414;2023-02-19T11:44:47;99540.22;;;11.01;100.00
41264;BME280;26998;48.714;9.414;2023-02-19T11:50:22;99553.56;;;10.86;100.00
41264;BME280;26998;48.714;9.414;2023-02-19T11:53:28;99568.34;;;10.82;100.00
41264;BME280;26998;48.714;9.414;2023-02-19T11:56:33;99560.88;;;10.78;100.00
41264;BME280;26998;48.714;9.414;2023-02-19T11:59:53;99562.91;;;10.91;100.00
41264;BME280;26998;48.714;9.414;2023-02-19T12:10:30;99580.25;;;10.95;100.00
41264;BME280;26998;48.714;9.414;2023-02-19T12:16:10;99580.72;;;11.13;100.00
41264;BME280;26998;48.714;9.414;2023-02-19T12:19:01;99570.56;;;11.08;100.00
41264;BME280;26998;48.714;9.414;2023-02-19T12:32:24;99556.53;;;11.21;100.00
41264;BME280;26998;48.714;9.414;2023-02-19T12:40:37;99545.53;;;11.46;100.00
41264;BME280;26998;48.714;9.414;2023-02-19T12:43:20;99550.34;;;11.50;100.00
41264;BME280;26998;48.714;9.414;2023-02-19T12:51:05;99568.63;;;10.88;100.00
41264;BME280;26998;48.714;9.414;2023-02-19T12:53:41;99560.00;;;10.77;100.00
41264;BME280;26998;48.714;9.414;2023-02-19T12:56:19;99551.13;;;10.62;100.00
41264;BME280;26998;48.714;9.414;2023-02-19T12:58:56;99541.75;;;10.81;100.00
41264;BME280;26998;48.714;9.414;2023-02-19T13:01:27;99541.75;;;10.81;100.00
41264;BME280;26998;48.714;9.414;2023-02-19T13:04:18;99547.03;;;10.89;100.00
41264;BME280;26998;48.714;9.414;2023-02-19T13:06:52;99552.78;;;11.01;100.00
41264;BME280;26998;48.714;9.414;2023-02-19T13:09:26;99548.16;;;11.09;100.00
41264;BME280;26998;48.714;9.414;2023-02-19T13:12:10;99536.72;;;11.16;100.00
41264;BME280;26998;48.714;9.414;2023-02-19T13:14:42;99550.94;;;11.31;100.00
41264;BME280;26998;48.714;9.414;2023-02-19T13:17:26;99547.88;;;11.04;100.00
41264;BME280;26998;48.714;9.414;2023-02-19T13:22:45;99545.38;;;10.88;100.00
41264;BME280;26998;48.714;9.414;2023-02-19T13:25:17;99538.28;;;10.95;100.00
41264;BME280;26998;48.714;9.414;2023-02-19T13:38:26;99549.84;;;10.58;100.00
41264;BME280;26998;48.714;9.414;2023-02-19T13:40:57;99547.63;;;10.47;100.00
41264;BME280;26998;48.714;9.414;2023-02-19T13:43:30;99554.03;;;10.37;100.00
41264;BME280;26998;48.714;9.414;2023-02-19T13:46:01;99551.94;;;10.48;100.00
41264;BME280;26998;48.714;9.414;2023-02-19T13:48:34;99539.88;;;10.52;100.00
41264;BME280;26998;48.714;9.414;2023-02-19T14:04:28;99544.56;;;10.50;100.00
41264;BME280;26998;48.714;9.414;2023-02-19T14:14:43;99532.38;;;10.24;100.00
41264;BME280;26998;48.714;9.414;2023-02-19T14:17:26;99535.88;;;10.25;100.00
41264;BME280;26998;48.714;9.414;2023-02-19T14:19:54;99535.06;;;10.24;100.00
41264;BME280;26998;48.714;9.414;2023-02-19T14:22:47;99527.88;;;10.25;100.00
41264;BME280;26998;48.714;9.414;2023-02-19T14:25:22;99525.06;;;10.26;100.00
41264;BME280;26998;48.714;9.414;2023-02-19T14:27:53;99531.91;;;10.29;100.00
41264;BME280;26998;48.714;9.414;2023-02-19T14:30:23;99530.88;;;10.30;100.00
41264;BME280;26998;48.714;9.414;2023-02-19T14:32:50;99533.66;;;10.36;100.00
41264;BME280;26998;48.714;9.414;2023-02-19T14:35:39;99544.81;;;10.40;100.00
41264;BME280;26998;48.714;9.414;2023-02-19T14:38:14;99535.50;;;10.36;100.00
41264;BME280;26998;48.714;9.414;2023-02-19T14:40:43;99561.88;;;10.39;100.00
41264;BME280;26998;48.714;9.414;2023-02-19T14:43:15;99559.38;;;10.37;100.00
41264;BME280;26998;48.714;9.414;2023-02-19T14:45:49;99559.25;;;10.31;100.00
41264;BME280;26998;48.714;9.414;2023-02-19T14:48:23;99543.78;;;10.26;100.00
41264;BME280;26998;48.714;9.414;2023-02-19T14:50:56;99563.63;;;10.24;100.00
41264;BME280;26998;48.714;9.414;2023-02-19T14:53:24;99566.97;;;10.26;100.00
41264;BME280;26998;48.714;9.414;2023-02-19T14:55:53;99568.63;;;10.27;100.00